Time;durP1;ratioP1;P1;durP2;ratioP2;P2;SDS_P1;SDS_P2;PMS_P1;PMS_P2;Temp;Humidity;BMP_temperature;BMP_pressure;BME280_temperature;BME280_humidity;BME280_pressure;Samples;Min_cycle;Max_cycle;Signal;HPM_P1;HPM_P2
2021/09/07 00:01:03;;;;;;;11.50;10.32;;;;;;;20.91;55.06;100855.97;10391881;28;20565;-55
2021/09/07 00:06:05;;;;;;;10.98;9.95;;;;;;;20.87;55.13;100853.78;10387732;28;20049;-54
2021/09/07 00:11:06;;;;;;;12.10;10.38;;;;;;;20.76;54.51;100836.94;10396867;28;20095;-54
2021/09/07 00:16:08;;;;;;;11.65;9.65;;;;;;;20.68;55.09;100845.06;10403883;28;20132;-54
2021/09/07 00:21:10;;;;;;;12.18;10.98;;;;;;;20.66;55.53;100852.53;10397276;28;20502;-57
2021/09/07 00:26:11;;;;;;;33.80;12.20;;;;;;;20.59;56.21;100851.50;10385987;28;20076;-55
2021/09/07 00:31:12;;;;;;;12.77;11.23;;;;;;;20.47;56.45;100854.56;10390672;28;20227;-55
2021/09/07 00:36:14;;;;;;;11.70;10.50;;;;;;;20.43;56.20;100847.84;10388079;28;20077;-54
2021/09/07 00:41:15;;;;;;;11.75;10.55;;;;;;;20.36;56.32;100837.91;10397502;28;20050;-54
2021/09/07 00:46:17;;;;;;;12.30;11.00;;;;;;;20.34;56.07;100848.88;10389484;28;20065;-54
2021/09/07 00:51:20;;;;;;;10.63;9.55;;;;;;;20.32;56.08;100848.22;10408862;28;20073;-54
2021/09/07 00:56:23;;;;;;;13.95;11.20;;;;;;;20.23;55.88;100841.13;10390368;28;20041;-54
2021/09/07 01:01:25;;;;;;;12.27;11.00;;;;;;;20.24;54.96;100834.72;10387114;28;20060;-54
2021/09/07 01:06:27;;;;;;;11.95;10.07;;;;;;;20.19;55.26;100832.53;10401124;28;20518;-54
2021/09/07 01:11:29;;;;;;;11.73;10.52;;;;;;;20.13;54.79;100839.47;10386635;28;20125;-54
2021/09/07 01:16:30;;;;;;;12.35;10.82;;;;;;;20.10;54.01;100825.44;10405074;28;20111;-54
2021/09/07 01:21:32;;;;;;;13.90;11.00;;;;;;;20.13;53.97;100839.47;10386716;28;20082;-59
2021/09/07 01:26:33;;;;;;;11.98;10.40;;;;;;;20.05;53.75;100839.47;10407518;28;20068;-55
2021/09/07 01:31:35;;;;;;;11.15;9.90;;;;;;;20.05;53.93;100839.47;10393304;28;20582;-54
2021/09/07 01:36:37;;;;;;;12.43;11.02;;;;;;;19.95;53.91;100839.69;10387169;28;20136;-54
2021/09/07 01:41:39;;;;;;;12.45;11.07;;;;;;;19.96;53.98;100843.22;10390687;28;20090;-54
2021/09/07 01:46:40;;;;;;;12.45;11.15;;;;;;;19.90;54.05;100841.19;10385708;28;20129;-54
2021/09/07 01:51:43;;;;;;;13.00;11.20;;;;;;;19.87;54.56;100846.94;10385654;28;20042;-54
2021/09/07 01:56:45;;;;;;;11.65;10.45;;;;;;;19.84;54.49;100845.41;10380962;28;20560;-54
2021/09/07 02:08:08;;;;;;;13.73;11.18;;;;;;;19.77;54.21;100826.34;10378182;28;20377;-54
2021/09/07 02:13:09;;;;;;;11.50;10.35;;;;;;;19.81;54.07;100832.25;10386277;28;20061;-54
2021/09/07 02:18:11;;;;;;;15.27;11.90;;;;;;;19.74;54.21;100834.75;10399340;28;20128;-54
2021/09/07 02:23:13;;;;;;;13.20;11.80;;;;;;;19.72;54.11;100828.66;10383895;28;20064;-55
2021/09/07 02:28:15;;;;;;;11.50;10.30;;;;;;;19.68;54.47;100826.47;10382847;28;20100;-55
2021/09/07 02:33:16;;;;;;;12.20;10.85;;;;;;;19.69;54.85;100826.31;10382313;28;20076;-54
2021/09/07 02:38:18;;;;;;;12.57;10.98;;;;;;;19.59;55.10;100812.13;10391099;28;20077;-54
2021/09/07 02:43:19;;;;;;;11.75;10.55;;;;;;;19.58;55.39;100821.25;10381717;28;20076;-54
2021/09/07 02:48:25;;;;;;;14.98;12.20;;;;;;;19.48;55.88;100809.78;10387758;28;20068;-54
2021/09/07 02:53:26;;;;;;;13.63;12.07;;;;;;;19.36;56.65;100806.56;10379663;28;20061;-54
2021/09/07 02:58:27;;;;;;;12.90;11.48;;;;;;;19.34;57.24;100814.84;10385840;28;20123;-54
2021/09/07 03:03:29;;;;;;;12.90;11.60;;;;;;;19.30;57.32;100813.47;10397542;28;20073;-54
2021/09/07 03:08:32;;;;;;;12.52;10.85;;;;;;;19.28;57.51;100817.38;10395845;28;20469;-54
2021/09/07 03:13:33;;;;;;;13.80;12.18;;;;;;;19.17;57.87;100799.63;10387147;28;20096;-54
2021/09/07 03:18:35;;;;;;;16.23;13.48;;;;;;;19.06;58.34;100801.63;10382517;28;20133;-54
2021/09/07 03:23:36;;;;;;;15.00;12.40;;;;;;;19.02;58.83;100797.59;10392220;28;20049;-54
2021/09/07 03:28:38;;;;;;;16.92;13.13;;;;;;;19.04;59.17;100792.03;10401236;28;20494;-54
2021/09/07 03:33:39;;;;;;;14.32;12.52;;;;;;;19.03;58.88;100796.56;10394895;28;20075;-54
2021/09/07 03:38:41;;;;;;;14.50;12.82;;;;;;;19.03;59.12;100795.72;10384954;28;20045;-54
2021/09/07 03:43:42;;;;;;;16.23;12.55;;;;;;;19.03;58.81;100804.66;10397850;28;20448;-54
2021/09/07 03:48:44;;;;;;;15.55;12.57;;;;;;;19.05;58.62;100810.75;10405090;28;20126;-54
2021/09/07 03:53:47;;;;;;;13.48;12.07;;;;;;;18.98;58.58;100804.31;10400627;28;20301;-54
2021/09/07 03:58:48;;;;;;;15.88;12.32;;;;;;;18.98;58.52;100809.72;10391626;28;20548;-57
2021/09/07 04:03:50;;;;;;;13.50;11.55;;;;;;;19.00;57.84;100807.69;10389415;28;20065;-54
2021/09/07 04:08:51;;;;;;;13.25;11.80;;;;;;;19.01;56.88;100801.28;10397348;28;20052;-54
2021/09/07 04:13:53;;;;;;;13.27;11.98;;;;;;;19.01;57.00;100813.94;10385044;28;20673;-54
2021/09/07 04:18:54;;;;;;;15.40;12.73;;;;;;;19.03;56.75;100807.34;10409344;28;20073;-54
2021/09/07 04:23:56;;;;;;;13.50;11.90;;;;;;;19.11;56.05;100822.75;10384083;28;20065;-54
2021/09/07 04:28:58;;;;;;;13.82;12.35;;;;;;;19.04;56.26;100803.66;10423578;28;20126;-54
2021/09/07 04:34:01;;;;;;;12.55;11.02;;;;;;;19.11;55.91;100808.38;10382047;28;20100;-54
2021/09/07 04:39:03;;;;;;;13.05;11.57;;;;;;;19.13;55.12;100801.00;10391905;28;20643;-54
2021/09/07 04:44:05;;;;;;;12.73;11.43;;;;;;;19.16;55.16;100800.66;10400552;28;20126;-54
2021/09/07 04:49:06;;;;;;;14.13;12.10;;;;;;;19.18;55.33;100807.56;10384770;28;20041;-55
2021/09/07 04:54:08;;;;;;;12.82;11.52;;;;;;;19.19;55.12;100801.16;10382314;28;20115;-54
2021/09/07 04:59:09;;;;;;;14.77;11.93;;;;;;;19.02;56.10;100777.84;10389747;28;20130;-54
2021/09/07 05:04:10;;;;;;;14.68;12.15;;;;;;;19.22;55.37;100821.56;10414311;28;20791;-54
2021/09/07 05:09:12;;;;;;;13.20;11.82;;;;;;;19.15;55.29;100809.75;10384831;28;20056;-54
2021/09/07 05:14:14;;;;;;;16.88;12.45;;;;;;;19.12;55.70;100818.19;10396105;28;20563;-55
2021/09/07 05:19:16;;;;;;;13.13;11.68;;;;;;;19.12;55.53;100819.00;10402236;28;20431;-54
2021/09/07 05:24:17;;;;;;;15.10;12.95;;;;;;;19.15;55.81;100828.63;10409076;22;20045;-61
2021/09/07 05:29:19;;;;;;;18.15;14.68;;;;;;;19.17;55.50;100834.69;10423524;28;20049;-64
2021/09/07 05:34:20;;;;;;;15.88;13.77;;;;;;;19.18;55.67;100848.03;10418068;28;20131;-61
2021/09/07 05:39:23;;;;;;;14.60;12.93;;;;;;;19.21;55.58;100846.84;10416916;28;20106;-61
2021/09/07 05:44:25;;;;;;;15.07;13.47;;;;;;;19.22;55.75;100840.47;10418104;28;20420;-62
2021/09/07 05:49:26;;;;;;;18.27;15.48;;;;;;;19.25;56.14;100859.03;10417819;28;20279;-61
2021/09/07 05:54:28;;;;;;;17.17;13.38;;;;;;;19.22;56.97;100860.19;10434997;28;20094;-64
2021/09/07 05:59:29;;;;;;;17.80;13.05;;;;;;;19.31;58.34;100854.81;10420398;28;20405;-62
2021/09/07 06:04:31;;;;;;;19.05;13.80;;;;;;;19.34;57.15;100863.41;10412910;28;20148;-62
2021/09/07 06:09:32;;;;;;;13.70;12.30;;;;;;;19.44;57.29;100865.94;10412050;28;20691;-65
2021/09/07 06:14:34;;;;;;;14.73;12.13;;;;;;;19.53;56.50;100861.41;10422578;28;20055;-64
2021/09/07 06:19:35;;;;;;;15.80;13.63;;;;;;;19.58;57.45;100869.88;10414150;28;20538;-65
2021/09/07 06:24:36;;;;;;;16.52;12.73;;;;;;;19.46;57.32;100863.13;10421462;28;20045;-62
2021/09/07 06:29:38;;;;;;;16.38;13.38;;;;;;;19.50;57.25;100877.94;10423985;28;20118;-65
2021/09/07 06:34:40;;;;;;;17.25;13.50;;;;;;;19.53;57.28;100872.22;10416210;28;20464;-60
2021/09/07 06:39:41;;;;;;;16.33;13.10;;;;;;;19.65;56.81;100870.88;10421697;28;20646;-62
2021/09/07 06:44:43;;;;;;;18.30;13.73;;;;;;;19.77;56.16;100880.38;10422801;28;20502;-62
2021/09/07 06:49:44;;;;;;;14.80;13.10;;;;;;;19.88;55.62;100878.34;10416080;28;20127;-64
2021/09/07 06:54:45;;;;;;;15.73;12.73;;;;;;;19.98;55.35;100879.00;10419344;28;20092;-62
2021/09/07 06:59:47;;;;;;;15.70;13.25;;;;;;;20.09;55.16;100875.97;10415044;28;20053;-65
2021/09/07 07:04:48;;;;;;;14.73;13.30;;;;;;;20.20;54.53;100880.16;10417521;28;20141;-65
2021/09/07 07:09:51;;;;;;;16.08;12.70;;;;;;;20.24;54.81;100886.09;10416986;28;20508;-62
2021/09/07 07:14:53;;;;;;;17.23;12.90;;;;;;;20.47;54.31;100891.59;10421326;28;20064;-60
2021/09/07 07:19:54;;;;;;;14.05;12.43;;;;;;;20.58;53.84;100890.38;10422195;28;20064;-61
2021/09/07 07:24:56;;;;;;;14.65;13.05;;;;;;;20.75;53.84;100899.34;10411200;28;20156;-63
2021/09/07 07:29:57;;;;;;;15.05;12.75;;;;;;;20.91;53.22;100898.41;10425521;28;20114;-63
2021/09/07 07:34:58;;;;;;;14.13;11.70;;;;;;;21.12;52.79;100901.38;10428173;28;20060;-60
2021/09/07 07:40:00;;;;;;;15.65;12.75;;;;;;;21.34;52.45;100910.53;10430171;28;20136;-63
2021/09/07 07:45:02;;;;;;;22.95;20.52;;;;;;;21.50;52.49;100904.22;10423923;28;20413;-64
2021/09/07 07:50:04;;;;;;;13.85;12.45;;;;;;;21.65;51.75;100907.00;10419574;28;20555;-65
2021/09/07 07:55:06;;;;;;;14.07;12.07;;;;;;;21.87;51.71;100905.31;10428968;28;20053;-65
2021/09/07 08:00:08;;;;;;;14.40;13.00;;;;;;;22.11;50.87;100914.22;10428608;28;20129;-65
2021/09/07 08:05:11;;;;;;;14.05;12.15;;;;;;;22.27;50.79;100917.84;10428602;28;20076;-65
2021/09/07 08:10:15;;;;;;;14.50;12.88;;;;;;;22.52;49.71;100913.00;10428677;28;20143;-66
2021/09/07 08:15:18;;;;;;;15.80;12.60;;;;;;;22.73;49.39;100923.97;10435526;28;20132;-65
2021/09/07 08:20:19;;;;;;;13.77;11.90;;;;;;;22.85;49.08;100908.06;10426175;28;20698;-63
2021/09/07 08:25:21;;;;;;;16.40;11.57;;;;;;;23.09;48.58;100914.22;10425177;28;20402;-64
2021/09/07 08:30:22;;;;;;;16.90;12.70;;;;;;;23.30;48.29;100911.56;10419427;28;20061;-61
2021/09/07 08:35:23;;;;;;;12.85;11.48;;;;;;;23.46;47.88;100910.50;10423961;28;20073;-64
2021/09/07 08:40:25;;;;;;;16.83;12.73;;;;;;;23.65;47.82;100908.16;10432437;28;20705;-63
2021/09/07 08:45:28;;;;;;;13.10;10.93;;;;;;;23.81;47.68;100901.66;10421139;28;20708;-63
2021/09/07 08:50:29;;;;;;;16.20;12.52;;;;;;;24.27;46.10;100909.34;10420288;28;20068;-64
2021/09/07 08:55:31;;;;;;;12.02;10.77;;;;;;;24.67;45.37;100917.81;10415861;28;20131;-65
2021/09/07 09:00:35;;;;;;;14.05;12.23;;;;;;;24.87;44.33;100906.19;10420936;28;20111;-63
2021/09/07 09:05:40;;;;;;;13.57;11.63;;;;;;;24.97;44.46;100914.00;10426467;28;20053;-63
2021/09/07 09:10:43;;;;;;;13.27;11.63;;;;;;;25.19;44.47;100917.41;10413514;28;20451;-66
2021/09/07 09:16:05;;;;;;;12.88;10.90;;;;;;;25.53;43.68;100910.22;10437594;28;20895;-64
2021/09/07 09:21:48;;;;;;;13.43;11.27;;;;;;;25.99;43.04;100912.19;10416640;28;20397;-63
2021/09/07 09:26:54;;;;;;;10.73;9.73;;;;;;;26.05;42.34;100896.88;10395150;28;20124;-65
2021/09/07 09:32:00;;;;;;;13.02;11.75;;;;;;;26.37;42.33;100907.97;10431122;28;20073;-66
2021/09/07 09:37:09;;;;;;;12.52;11.23;;;;;;;26.77;41.54;100916.94;10416453;28;20122;-65
2021/09/07 09:42:14;;;;;;;11.77;10.57;;;;;;;27.13;40.79;100907.34;10418642;28;20292;-67
2021/09/07 09:47:33;;;;;;;12.60;10.50;;;;;;;27.42;39.86;100918.78;10420560;28;20132;-65
2021/09/07 09:52:40;;;;;;;12.90;11.20;;;;;;;27.61;39.27;100905.19;10419547;28;20095;-67
2021/09/07 09:57:43;;;;;;;13.27;11.77;;;;;;;28.10;38.27;100898.09;10407083;28;20146;-64
2021/09/07 10:02:45;;;;;;;;;;;;;;;28.57;36.90;100909.44;10417213;28;20079;-63
2021/09/07 10:07:47;;;;;;;13.45;10.60;;;;;;;29.04;36.49;100908.09;10414481;28;20015;-63
2021/09/07 10:12:56;;;;;;;10.88;9.77;;;;;;;29.75;35.49;100902.88;10417583;28;20132;-63
2021/09/07 10:18:44;;;;;;;11.63;10.52;;;;;;;32.23;31.87;100893.97;10422396;28;20527;-63
2021/09/07 10:28:56;;;;;;;10.85;9.75;;;;;;;33.12;28.52;100880.25;10418975;28;20061;-62
2021/09/07 10:33:58;;;;;;;16.25;11.88;;;;;;;32.42;30.01;100874.41;10413072;28;20399;-66
2021/09/07 10:39:03;;;;;;;10.57;9.57;;;;;;;32.27;30.66;100863.19;10419807;28;20122;-67
2021/09/07 10:44:04;;;;;;;10.32;9.32;;;;;;;33.58;28.83;100868.84;10433164;28;20072;-66
2021/09/07 10:49:40;;;;;;;;;;;;;;;36.08;23.77;100863.75;10417492;28;20080;-66
2021/09/07 10:54:53;;;;;;;10.52;9.40;;;;;;;38.23;21.33;100854.44;10417308;28;19957;-64
2021/09/07 10:59:57;;;;;;;11.45;10.32;;;;;;;37.97;21.84;100841.59;10413273;28;20049;-67
2021/09/07 11:05:01;;;;;;;10.80;9.68;;;;;;;39.38;20.05;100837.56;10412849;28;20065;-68
2021/09/07 11:10:04;;;;;;;10.38;9.43;;;;;;;39.73;19.86;100834.50;10430956;28;20055;-68
2021/09/07 11:15:08;;;;;;;9.93;9.02;;;;;;;39.20;20.50;100832.84;10415547;28;20689;-67
2021/09/07 11:20:09;;;;;;;9.52;8.63;;;;;;;40.49;18.19;100825.78;10422173;28;20140;-68
2021/09/07 11:25:15;;;;;;;8.43;7.72;;;;;;;41.47;17.36;100827.16;10412022;28;20056;-65
2021/09/07 11:30:22;;;;;;;12.15;9.13;;;;;;;40.43;17.51;100824.22;10404368;28;20041;-66
2021/09/07 11:35:24;;;;;;;9.40;8.55;;;;;;;41.02;16.39;100829.94;10415730;28;20068;-67
2021/09/07 11:40:27;;;;;;;9.35;8.50;;;;;;;40.59;15.61;100816.38;10416342;28;20037;-66
2021/09/07 11:45:31;;;;;;;9.85;8.88;;;;;;;42.48;15.53;100821.03;10422283;28;20121;-67
2021/09/07 11:50:38;;;;;;;9.32;8.43;;;;;;;41.14;16.06;100816.22;10421794;28;20048;-66
2021/09/07 11:55:53;;;;;;;8.45;7.65;;;;;;;42.08;15.61;100809.06;10421351;28;20136;-67
2021/09/07 12:00:58;;;;;;;9.13;8.25;;;;;;;44.71;12.66;100809.50;10411630;28;20102;-68
2021/09/07 12:06:00;;;;;;;8.80;8.10;;;;;;;46.47;11.67;100815.66;10417517;28;20045;-70
2021/09/07 12:11:05;;;;;;;9.05;8.25;;;;;;;46.94;11.56;100800.16;10416069;28;20143;-67
2021/09/07 12:16:07;;;;;;;10.93;8.73;;;;;;;46.56;11.53;100801.47;10419331;28;20556;-66
2021/09/07 12:21:12;;;;;;;8.65;7.95;;;;;;;46.47;11.87;100795.13;10428541;28;20103;-66
2021/09/07 12:26:15;;;;;;;8.52;7.82;;;;;;;47.89;11.27;100782.59;10424782;28;21374;-67
2021/09/07 12:31:19;;;;;;;8.70;7.78;;;;;;;46.24;11.95;100775.94;10427613;28;20060;-68
2021/09/07 12:36:24;;;;;;;8.82;7.85;;;;;;;44.69;13.66;100770.53;10426809;28;20130;-67
2021/09/07 12:41:25;;;;;;;7.93;7.20;;;;;;;44.30;13.79;100755.81;10441530;28;20045;-67
2021/09/07 12:46:27;;;;;;;9.02;8.32;;;;;;;45.22;13.03;100761.66;10421052;28;20079;-69
2021/09/07 12:51:28;;;;;;;8.43;7.72;;;;;;;41.55;16.01;100752.13;10425562;28;20661;-66
2021/09/07 12:56:31;;;;;;;9.13;8.43;;;;;;;39.74;18.04;100758.97;10423018;28;20228;-66
2021/09/07 13:01:33;;;;;;;9.60;8.80;;;;;;;37.79;19.47;100742.34;10412133;28;20053;-66
2021/09/07 13:06:35;;;;;;;10.18;9.20;;;;;;;36.35;21.79;100740.69;10421827;28;20055;-68
2021/09/07 13:11:38;;;;;;;9.80;8.82;;;;;;;36.09;21.68;100737.97;10422192;28;20274;-66
2021/09/07 13:16:40;;;;;;;8.88;8.15;;;;;;;35.68;21.76;100733.34;10415640;28;20047;-67
2021/09/07 13:21:43;;;;;;;9.40;8.60;;;;;;;34.95;22.37;100725.38;10416137;28;20048;-65
2021/09/07 13:26:44;;;;;;;9.80;8.57;;;;;;;34.76;23.23;100723.13;10430010;28;20073;-69
2021/09/07 13:31:46;;;;;;;9.23;8.32;;;;;;;34.16;23.17;100719.91;10419032;28;20045;-68
2021/09/07 13:36:47;;;;;;;8.43;7.53;;;;;;;34.32;23.15;100712.50;10415411;28;20112;-67
2021/09/07 13:41:49;;;;;;;8.85;8.05;;;;;;;34.13;22.94;100714.91;10421122;28;20049;-67
2021/09/07 13:46:50;;;;;;;8.35;7.60;;;;;;;33.97;23.95;100714.00;10432475;28;20050;-65
2021/09/07 13:51:52;;;;;;;8.80;8.10;;;;;;;33.91;23.55;100712.31;10418036;28;20095;-66
2021/09/07 13:56:53;;;;;;;9.38;8.38;;;;;;;33.22;24.18;100711.31;10435089;28;20052;-68
2021/09/07 14:01:55;;;;;;;8.50;7.68;;;;;;;32.82;24.86;100707.06;10417483;28;20136;-68
2021/09/07 14:06:57;;;;;;;8.20;7.50;;;;;;;32.60;24.91;100706.00;10423118;28;20052;-66
2021/09/07 14:11:58;;;;;;;8.93;8.20;;;;;;;32.30;25.26;100695.50;10423923;28;20072;-63
2021/09/07 14:17:00;;;;;;;;;;;;;;;31.86;26.39;100684.47;10420155;28;20055;-63
2021/09/07 14:22:02;;;;;;;8.60;7.80;;;;;;;31.65;26.09;100684.19;10416502;28;20695;-65
2021/09/07 14:27:03;;;;;;;7.57;6.75;;;;;;;31.33;25.50;100681.22;10420340;28;20072;-64
2021/09/07 14:32:05;;;;;;;;;;;;;;;31.17;26.08;100686.47;10407220;28;20072;-65
2021/09/07 14:37:06;;;;;;;8.60;7.67;;;;;;;31.08;26.15;100673.41;10411884;28;20023;-65
2021/09/07 14:42:08;;;;;;;8.23;7.43;;;;;;;30.92;26.09;100675.03;10420215;28;20106;-65
2021/09/07 14:47:11;;;;;;;9.07;7.38;;;;;;;30.79;26.54;100677.03;10427888;28;20131;-62
2021/09/07 14:52:13;;;;;;;7.60;6.18;;;;;;;29.68;27.24;100663.50;10431083;28;20068;-67
2021/09/07 14:57:14;;;;;;;7.50;6.78;;;;;;;29.88;27.04;100661.25;10422894;28;20478;-64
2021/09/07 15:02:16;;;;;;;11.03;9.10;;;;;;;30.01;28.43;100664.78;10419799;28;20080;-65
2021/09/07 15:07:17;;;;;;;12.70;11.50;;;;;;;29.94;28.67;100665.75;10422117;28;20076;-62
2021/09/07 15:12:19;;;;;;;9.70;8.85;;;;;;;29.85;28.88;100661.72;10421668;28;20075;-64
2021/09/07 15:17:20;;;;;;;9.30;8.40;;;;;;;29.74;29.04;100659.78;10422261;28;20132;-66
2021/09/07 15:22:22;;;;;;;9.93;7.50;;;;;;;29.60;28.67;100657.31;10421441;28;20119;-64
2021/09/07 15:27:23;;;;;;;8.43;7.63;;;;;;;29.53;29.22;100659.38;10438825;28;20106;-69
2021/09/07 15:32:25;;;;;;;7.93;7.22;;;;;;;29.40;28.71;100662.34;10417677;28;20060;-67
2021/09/07 15:37:26;;;;;;;8.13;7.33;;;;;;;29.25;29.05;100658.16;10418560;28;20049;-65
2021/09/07 15:42:31;;;;;;;9.10;7.67;;;;;;;29.16;29.30;100650.53;10415263;28;20112;-64
2021/09/07 15:47:34;;;;;;;8.35;7.40;;;;;;;29.02;29.71;100645.25;10435032;28;20072;-66
2021/09/07 15:52:35;;;;;;;;;;;;;;;28.91;30.02;100652.41;10425702;28;20084;-65
2021/09/07 15:57:36;;;;;;;7.55;6.70;;;;;;;28.69;30.25;100634.81;10429903;28;20437;-63
2021/09/07 16:02:38;;;;;;;8.33;7.23;;;;;;;28.54;30.57;100644.28;10417904;28;20052;-63
2021/09/07 16:07:40;;;;;;;9.35;7.63;;;;;;;28.43;30.83;100642.34;10428478;28;20049;-66
2021/09/07 16:12:41;;;;;;;7.70;6.90;;;;;;;28.31;31.28;100634.09;10407985;28;20060;-62
2021/09/07 16:17:46;;;;;;;7.20;6.40;;;;;;;28.19;31.61;100635.94;10428077;28;20049;-66
2021/09/07 16:22:47;;;;;;;9.55;7.68;;;;;;;28.03;32.12;100634.69;10423196;28;20514;-66
2021/09/07 16:27:49;;;;;;;7.07;6.38;;;;;;;27.91;33.04;100631.00;10428474;28;20132;-64
2021/09/07 16:32:50;;;;;;;11.75;7.47;;;;;;;27.75;32.94;100619.63;10414381;28;20075;-66
2021/09/07 16:37:51;;;;;;;7.63;6.80;;;;;;;27.62;33.78;100627.97;10426629;28;20059;-64
2021/09/07 16:42:54;;;;;;;8.93;7.25;;;;;;;27.45;34.35;100620.38;10424534;28;20333;-62
2021/09/07 16:47:59;;;;;;;7.35;6.63;;;;;;;27.30;34.30;100609.78;10440650;28;20052;-62
2021/09/07 16:53:13;;;;;;;13.25;7.28;;;;;;;27.19;34.62;100606.94;10426044;28;20052;-63
2021/09/07 16:58:16;;;;;;;10.18;6.57;;;;;;;27.02;35.16;100602.06;10424268;28;20132;-64
2021/09/07 17:03:18;;;;;;;7.90;6.90;;;;;;;26.90;35.00;100601.13;10413696;28;20076;-64
2021/09/07 17:08:25;;;;;;;7.60;6.17;;;;;;;26.77;36.06;100594.72;10420624;28;20437;-65
2021/09/07 17:13:27;;;;;;;9.63;7.50;;;;;;;26.63;36.22;100587.66;10430881;28;20061;-65
2021/09/07 17:18:28;;;;;;;8.30;6.53;;;;;;;26.46;36.47;100582.72;10434090;28;20077;-63
2021/09/07 17:23:30;;;;;;;8.67;7.47;;;;;;;26.24;37.23;100568.63;10403046;22;20056;-54
2021/09/07 17:28:31;;;;;;;11.63;7.78;;;;;;;26.05;37.90;100569.56;10370045;28;20471;-52
2021/09/07 17:33:59;;;;;;;12.65;9.40;;;;;;;25.97;38.74;100577.97;10370556;28;20130;-53
2021/09/07 17:44:21;;;;;;;13.32;10.13;;;;;;;25.67;40.65;100576.63;10361270;28;20053;-54
2021/09/07 17:49:23;;;;;;;9.63;8.57;;;;;;;25.54;41.35;100579.41;10375642;28;20045;-51
2021/09/07 17:54:24;;;;;;;11.15;9.05;;;;;;;25.44;42.44;100584.47;10371705;28;20058;-52
2021/09/07 17:59:26;;;;;;;10.95;8.07;;;;;;;25.31;42.88;100580.72;10369557;28;20060;-54
2021/09/07 18:04:27;;;;;;;10.20;9.02;;;;;;;25.20;43.51;100584.06;10374791;28;20063;-53
2021/09/07 18:09:29;;;;;;;9.30;7.30;;;;;;;25.00;43.70;100595.00;10373275;28;20042;-56
2021/09/07 18:14:31;;;;;;;8.60;7.70;;;;;;;24.75;44.78;100586.59;10381066;28;20052;-55
2021/09/07 18:19:32;;;;;;;10.20;7.70;;;;;;;24.70;45.10;100596.22;10373598;28;20060;-58
2021/09/07 18:24:34;;;;;;;10.95;8.48;;;;;;;24.63;45.25;100600.00;10383302;28;20056;-55
2021/09/07 18:29:36;;;;;;;9.93;7.72;;;;;;;24.59;45.02;100609.63;10377306;28;20364;-55
2021/09/07 18:34:37;;;;;;;10.75;7.90;;;;;;;24.49;45.92;100610.84;10377018;28;20401;-53
2021/09/07 18:39:39;;;;;;;11.80;8.25;;;;;;;24.39;45.72;100606.84;10354662;28;20049;-56
2021/09/07 18:44:40;;;;;;;8.45;7.65;;;;;;;24.33;45.48;100622.09;10353994;28;20553;-55
2021/09/07 18:49:42;;;;;;;9.88;7.15;;;;;;;24.16;45.92;100627.06;10355884;28;20124;-59
2021/09/07 18:54:43;;;;;;;8.05;7.30;;;;;;;24.12;46.37;100625.81;10367388;28;20100;-57
2021/09/07 18:59:45;;;;;;;9.88;7.60;;;;;;;24.03;46.62;100633.28;10357126;28;20069;-55
2021/09/07 19:04:48;;;;;;;10.48;7.82;;;;;;;23.97;46.31;100637.66;10380264;28;20141;-56
2021/09/07 19:09:50;;;;;;;8.88;7.93;;;;;;;23.86;46.92;100638.25;10364175;28;20049;-56
2021/09/07 19:14:52;;;;;;;9.45;7.55;;;;;;;23.75;46.96;100642.34;10356645;28;20099;-55
2021/09/07 19:19:53;;;;;;;14.02;8.98;;;;;;;23.69;47.75;100636.84;10361019;28;20049;-56
2021/09/07 19:24:54;;;;;;;8.95;7.75;;;;;;;23.59;47.37;100638.06;10377239;28;20111;-56
2021/09/07 19:29:56;;;;;;;9.20;8.20;;;;;;;23.58;47.69;100644.53;10376353;28;20065;-53
2021/09/07 19:35:13;;;;;;;8.85;7.97;;;;;;;23.43;48.32;100638.38;10374186;28;20395;-54
2021/09/07 19:40:15;;;;;;;8.70;7.25;;;;;;;23.40;48.63;100641.50;10373984;28;20041;-54
2021/09/07 19:45:16;;;;;;;8.27;7.40;;;;;;;23.19;48.81;100616.06;10383767;28;20045;-55
2021/09/07 19:50:18;;;;;;;7.78;7.03;;;;;;;23.25;48.61;100628.84;10374232;28;20058;-53
2021/09/07 19:55:20;;;;;;;9.23;7.20;;;;;;;23.20;49.00;100634.03;10385978;28;20164;-53
2021/09/07 20:00:22;;;;;;;21.98;18.75;;;;;;;23.18;49.27;100629.84;10373251;28;20510;-53
2021/09/07 20:05:24;;;;;;;9.40;8.27;;;;;;;23.06;49.58;100624.94;10375683;28;20100;-57
2021/09/07 20:10:25;;;;;;;9.05;8.15;;;;;;;23.04;49.94;100631.59;10379726;28;20042;-53
2021/09/07 20:15:26;;;;;;;9.25;8.25;;;;;;;22.95;50.29;100620.88;10375816;28;20077;-56
2021/09/07 20:20:28;;;;;;;8.30;7.40;;;;;;;22.85;50.60;100614.94;10375616;28;20656;-56
2021/09/07 20:25:29;;;;;;;8.77;7.88;;;;;;;22.77;50.93;100617.78;10370278;28;20077;-56
2021/09/07 20:30:31;;;;;;;9.27;7.50;;;;;;;22.70;50.49;100614.16;10369100;28;20045;-57
2021/09/07 20:35:32;;;;;;;8.90;7.90;;;;;;;22.70;51.02;100616.88;10366974;28;21608;-54
2021/09/07 20:40:34;;;;;;;10.15;7.53;;;;;;;22.39;51.75;100588.22;10374675;28;20137;-52
2021/09/07 20:45:35;;;;;;;10.40;8.38;;;;;;;22.54;51.89;100613.41;10372902;28;20054;-55
2021/09/07 20:50:37;;;;;;;9.10;7.95;;;;;;;22.45;52.01;100611.84;10374819;28;20133;-58
2021/09/07 20:55:40;;;;;;;9.05;7.95;;;;;;;22.36;51.97;100618.44;10376630;28;20042;-55
2021/09/07 21:00:41;;;;;;;9.43;7.88;;;;;;;22.25;52.59;100612.44;10375048;28;20107;-57
2021/09/07 21:05:43;;;;;;;9.00;8.10;;;;;;;22.20;52.65;100617.63;10387665;28;22545;-54
2021/09/07 21:10:45;;;;;;;9.07;7.82;;;;;;;22.08;52.74;100613.69;10380777;28;20139;-55
2021/09/07 21:15:46;;;;;;;10.02;8.32;;;;;;;22.07;52.70;100612.03;10384276;28;20065;-54
2021/09/07 21:20:48;;;;;;;8.23;7.43;;;;;;;22.02;52.40;100611.75;10357763;28;20084;-53
2021/09/07 21:25:49;;;;;;;9.90;8.63;;;;;;;22.01;52.77;100620.94;10377542;28;20045;-55
2021/09/07 21:30:50;;;;;;;8.77;7.82;;;;;;;21.93;53.09;100623.75;10365037;28;20076;-54
2021/09/07 21:35:53;;;;;;;11.23;8.13;;;;;;;21.82;53.54;100623.19;10368218;28;20127;-57
2021/09/07 21:40:54;;;;;;;9.77;8.03;;;;;;;21.76;53.97;100625.81;10377288;28;20240;-57
2021/09/07 21:45:56;;;;;;;9.98;8.20;;;;;;;21.71;54.01;100627.22;10381242;28;20441;-55
2021/09/07 21:50:57;;;;;;;9.95;8.15;;;;;;;21.65;54.69;100624.44;10363474;28;20124;-54
2021/09/07 21:55:59;;;;;;;9.60;8.55;;;;;;;21.56;54.57;100620.13;10375487;28;20137;-56
2021/09/07 22:01:00;;;;;;;11.32;9.15;;;;;;;21.51;54.86;100616.13;10392215;28;20136;-57
2021/09/07 22:06:02;;;;;;;10.93;9.18;;;;;;;21.48;55.30;100612.91;10364479;28;20050;-57
2021/09/07 22:11:03;;;;;;;9.70;8.63;;;;;;;21.39;55.17;100614.84;10379184;28;20136;-56
2021/09/07 22:16:06;;;;;;;9.95;8.95;;;;;;;21.33;55.16;100615.59;10364753;28;20131;-58
2021/09/07 22:21:08;;;;;;;9.30;8.40;;;;;;;21.27;55.33;100608.22;10374632;28;20136;-56
2021/09/07 22:26:09;;;;;;;10.45;8.23;;;;;;;21.19;55.31;100599.16;10374199;28;20081;-59
2021/09/07 22:31:10;;;;;;;9.00;8.05;;;;;;;21.18;54.89;100594.78;10381930;28;20068;-55
2021/09/07 22:36:12;;;;;;;11.13;8.50;;;;;;;21.12;55.06;100592.81;10359870;28;20057;-54
2021/09/07 22:41:14;;;;;;;14.20;8.60;;;;;;;21.07;55.12;100595.22;10371363;28;20134;-55
2021/09/07 22:46:15;;;;;;;9.27;8.10;;;;;;;21.06;55.33;100588.09;10367480;28;20049;-58
2021/09/07 22:51:17;;;;;;;9.20;8.35;;;;;;;21.00;55.25;100595.13;10369856;28;20053;-57
2021/09/07 22:56:18;;;;;;;9.15;8.23;;;;;;;20.81;55.25;100569.41;10371484;28;20127;-53
2021/09/07 23:01:20;;;;;;;11.85;8.10;;;;;;;20.93;55.43;100590.63;10358838;28;20096;-53
2021/09/07 23:06:21;;;;;;;10.02;8.60;;;;;;;20.89;55.63;100589.31;10353534;28;20441;-52
2021/09/07 23:11:23;;;;;;;10.18;8.77;;;;;;;20.87;55.56;100577.81;10362710;28;20441;-54